createdAt,value
2022-12-19T00:19:27.120Z,-3.72
2022-12-19T00:39:27.164Z,-3.84
2022-12-19T00:59:27.229Z,-3.97
2022-12-19T01:19:27.326Z,-3.97
2022-12-19T01:39:27.544Z,-3.87
2022-12-19T01:59:27.513Z,-3.84
2022-12-19T02:19:27.502Z,-3.75
2022-12-19T02:39:27.620Z,-3.86
2022-12-19T02:59:27.654Z,-3.84
2022-12-19T03:19:27.692Z,-3.91
2022-12-19T03:39:27.734Z,-3.89
2022-12-19T03:59:27.852Z,-3.91
2022-12-19T04:19:27.921Z,-3.86
2022-12-19T04:39:28.053Z,-3.84
2022-12-19T04:59:28.017Z,-3.92
2022-12-19T05:19:28.156Z,-3.72
2022-12-19T05:39:28.227Z,-3.71
2022-12-19T05:59:28.268Z,-3.79
2022-12-19T06:19:28.209Z,-3.73
2022-12-19T06:39:28.302Z,-3.75
2022-12-19T06:59:28.452Z,-3.72
2022-12-19T07:19:28.468Z,-3.56
2022-12-19T07:39:28.509Z,-3.41
2022-12-19T07:59:31.384Z,-3.19
2022-12-19T08:19:28.656Z,-2.98
2022-12-19T08:39:28.650Z,-2.96
2022-12-19T08:59:30.721Z,-2.67
2022-12-19T09:19:28.819Z,-2.73
2022-12-19T09:39:29.120Z,-2.48
2022-12-19T09:59:31.601Z,-2
2022-12-19T10:19:28.947Z,-1.69
2022-12-19T10:39:29.038Z,-1.53
2022-12-19T10:59:29.113Z,-1.22
2022-12-19T11:24:43.967Z,-1.15
2022-12-19T11:39:29.210Z,-0.95
2022-12-19T11:59:29.204Z,-0.89
2022-12-19T12:24:32.490Z,-0.8
2022-12-19T12:39:33.490Z,-0.64
2022-12-19T12:59:29.571Z,-0.59
2022-12-19T13:19:29.599Z,-0.53
2022-12-19T13:39:53.865Z,-0.39
2022-12-19T13:59:29.592Z,-0.41
2022-12-19T14:19:29.790Z,-0.31
2022-12-19T14:39:29.918Z,-0.33
2022-12-19T14:59:29.779Z,-0.44
2022-12-19T15:19:29.810Z,-0.54
2022-12-19T15:39:29.862Z,-0.5
2022-12-19T15:59:36.642Z,-0.48
2022-12-19T16:19:29.995Z,-0.46
2022-12-19T16:39:30.196Z,-0.39
2022-12-19T16:59:30.119Z,-0.33
2022-12-19T17:19:30.075Z,-0.43
2022-12-19T17:39:30.255Z,-0.49
2022-12-19T17:59:30.198Z,-0.66
2022-12-19T18:19:30.357Z,-0.89
2022-12-19T18:39:30.431Z,-1.13
2022-12-19T18:59:30.713Z,-1.22
2022-12-19T19:19:30.429Z,-1.07
2022-12-19T19:39:30.546Z,-1.18
2022-12-19T19:59:30.569Z,-1.05
2022-12-19T20:19:30.657Z,-1.45
2022-12-19T20:39:30.740Z,-1.69
2022-12-19T20:59:30.747Z,-1.98
2022-12-19T21:19:30.828Z,-2.21
2022-12-19T21:39:30.998Z,-2.39
2022-12-19T21:59:31.058Z,-2.54
2022-12-19T22:19:30.987Z,-2.66
2022-12-19T22:39:31.015Z,-2.83
2022-12-19T22:59:31.201Z,-2.92
2022-12-19T23:19:31.095Z,-2.78
2022-12-19T23:39:31.271Z,-2.48
2022-12-19T23:59:31.240Z,-2.19
